createdAt,value
2023-02-03T00:00:50.346Z,0.87
2023-02-03T00:03:18.303Z,1.13
2023-02-03T00:05:47.780Z,1.17
2023-02-03T00:08:15.747Z,0.80
2023-02-03T00:10:43.720Z,0.87
2023-02-03T00:13:11.690Z,0.80
2023-02-03T00:15:39.668Z,0.80
2023-02-03T00:18:07.677Z,0.80
2023-02-03T00:20:35.619Z,1.30
2023-02-03T00:23:08.116Z,1.23
2023-02-03T00:25:36.106Z,1.23
2023-02-03T00:28:04.301Z,0.93
2023-02-03T00:30:32.463Z,1.20
2023-02-03T00:33:01.611Z,1.00
2023-02-03T00:35:29.593Z,1.10
2023-02-03T00:37:57.544Z,0.80
2023-02-03T00:40:29.930Z,0.93
2023-02-03T00:42:58.000Z,0.90
2023-02-03T00:45:25.967Z,0.50
2023-02-03T00:47:53.976Z,1.20
2023-02-03T00:50:21.892Z,0.93
2023-02-03T00:52:49.819Z,0.93
2023-02-03T00:55:17.797Z,0.80
2023-02-03T00:57:47.086Z,0.97
2023-02-03T01:00:15.784Z,1.53
2023-02-03T01:02:43.774Z,1.30
2023-02-03T01:05:11.694Z,0.97
2023-02-03T01:07:39.671Z,1.50
2023-02-03T01:10:08.448Z,0.97
2023-02-03T01:12:36.464Z,0.63
2023-02-03T01:15:06.549Z,1.50
2023-02-03T01:17:34.591Z,0.90
2023-02-03T01:20:02.519Z,0.90
2023-02-03T01:22:30.664Z,1.13
2023-02-03T01:24:58.599Z,0.97
2023-02-03T01:27:26.631Z,1.03
2023-02-03T01:29:54.559Z,1.00
2023-02-03T01:32:23.889Z,0.90
2023-02-03T01:34:51.851Z,1.03
2023-02-03T01:37:19.773Z,0.80
2023-02-03T01:39:47.815Z,0.90
2023-02-03T01:42:16.060Z,1.67
2023-02-03T01:44:45.612Z,1.37
2023-02-03T01:47:26.667Z,1.10
2023-02-03T01:49:57.925Z,1.17
2023-02-03T01:52:25.905Z,1.17
2023-02-03T01:54:53.888Z,1.90
2023-02-03T01:57:24.119Z,1.33
2023-02-03T01:59:52.466Z,1.20
2023-02-03T02:02:20.439Z,1.27
2023-02-03T02:04:53.309Z,1.33
2023-02-03T02:07:21.270Z,1.30
2023-02-03T02:09:49.247Z,0.80
2023-02-03T02:12:17.206Z,0.70
2023-02-03T02:14:45.195Z,1.30
2023-02-03T02:17:19.887Z,0.70
2023-02-03T02:20:13.056Z,0.80
2023-02-03T02:22:46.055Z,1.00
2023-02-03T02:25:28.497Z,1.47
2023-02-03T02:28:31.558Z,1.13
2023-02-03T02:31:26.178Z,1.00
2023-02-03T02:33:57.632Z,1.50
2023-02-03T02:36:28.909Z,1.00
2023-02-03T02:39:00.247Z,0.90
2023-02-03T02:41:29.827Z,1.40
2023-02-03T02:44:01.292Z,0.70
2023-02-03T02:46:32.166Z,1.43
2023-02-03T02:49:03.133Z,1.20
2023-02-03T02:51:31.102Z,1.40
2023-02-03T02:54:00.636Z,1.10
2023-02-03T02:56:29.071Z,0.80
2023-02-03T02:58:57.377Z,1.27
2023-02-03T03:01:25.577Z,1.10
2023-02-03T03:03:53.624Z,1.10
2023-02-03T03:06:24.821Z,0.90
2023-02-03T03:08:55.493Z,1.33
2023-02-03T03:11:23.437Z,1.63
2023-02-03T03:13:52.273Z,1.33
2023-02-03T03:16:23.080Z,1.20
2023-02-03T03:18:51.858Z,1.07
2023-02-03T03:21:23.498Z,1.00
2023-02-03T03:23:52.233Z,0.90
2023-02-03T03:26:23.452Z,0.73
2023-02-03T03:28:53.209Z,1.30
2023-02-03T03:31:21.263Z,1.43
2023-02-03T03:33:49.275Z,1.83
2023-02-03T03:36:25.341Z,1.13
2023-02-03T03:38:56.571Z,1.13
2023-02-03T03:41:28.570Z,1.43
2023-02-03T03:43:57.411Z,1.33
2023-02-03T03:46:28.161Z,1.33
2023-02-03T03:48:57.231Z,1.87
2023-02-03T03:51:28.236Z,1.90
2023-02-03T03:53:56.992Z,1.03
2023-02-03T03:56:28.004Z,1.27
2023-02-03T03:58:56.026Z,1.80
2023-02-03T04:01:24.425Z,1.10
2023-02-03T04:03:55.629Z,2.53
2023-02-03T04:06:23.565Z,1.10
2023-02-03T04:08:52.900Z,1.40
2023-02-03T04:11:34.818Z,1.60
2023-02-03T04:14:02.832Z,1.13
2023-02-03T04:16:30.819Z,1.33
2023-02-03T04:18:58.833Z,1.43
2023-02-03T04:21:26.759Z,1.30
2023-02-03T04:23:56.986Z,0.80
2023-02-03T04:26:24.928Z,1.27
2023-02-03T04:28:52.940Z,1.20
2023-02-03T04:31:21.026Z,1.50
2023-02-03T04:33:49.032Z,1.23
2023-02-03T04:36:16.966Z,1.50
2023-02-03T04:38:44.931Z,0.93
2023-02-03T04:41:14.227Z,2.33
2023-02-03T04:43:42.177Z,1.47
2023-02-03T04:46:10.546Z,1.47
2023-02-03T04:48:38.546Z,1.80
2023-02-03T04:51:07.748Z,1.27
2023-02-03T04:53:35.855Z,1.33
2023-02-03T04:56:03.814Z,2.27
2023-02-03T04:58:33.136Z,1.37
2023-02-03T05:01:07.393Z,2.90
2023-02-03T05:03:35.517Z,1.80
2023-02-03T05:06:05.619Z,2.63
2023-02-03T05:08:33.613Z,1.90
2023-02-03T05:11:02.403Z,1.63
2023-02-03T05:13:30.484Z,3.10
2023-02-03T05:15:59.791Z,2.90
2023-02-03T05:18:27.762Z,2.80
2023-02-03T05:20:55.732Z,2.23
2023-02-03T05:23:23.667Z,2.33
2023-02-03T05:25:51.620Z,2.10
2023-02-03T05:28:19.681Z,2.27
2023-02-03T05:30:47.792Z,2.33
2023-02-03T05:33:17.194Z,4.23
2023-02-03T05:35:45.194Z,6.10
2023-02-03T05:38:13.134Z,4.33
2023-02-03T05:40:58.227Z,3.43
2023-02-03T05:43:26.271Z,2.73
2023-02-03T05:45:54.257Z,4.27
2023-02-03T05:48:23.649Z,2.30
2023-02-03T05:50:51.605Z,2.50
2023-02-03T05:53:19.513Z,1.90
2023-02-03T05:55:47.480Z,3.17
2023-02-03T05:58:15.420Z,2.30
2023-02-03T06:00:43.382Z,2.93
2023-02-03T06:03:11.448Z,2.83
2023-02-03T06:05:41.490Z,3.27
2023-02-03T06:08:09.664Z,2.47
2023-02-03T06:10:37.585Z,3.17
2023-02-03T06:13:12.025Z,3.33
2023-02-03T06:15:40.278Z,3.03
2023-02-03T06:18:08.344Z,2.90
2023-02-03T06:20:36.394Z,2.43
2023-02-03T06:23:05.745Z,2.43
2023-02-03T06:25:33.702Z,1.80
2023-02-03T06:28:01.727Z,3.47
2023-02-03T06:30:29.966Z,2.43
2023-02-03T06:32:58.045Z,2.80
2023-02-03T06:35:25.958Z,2.00
2023-02-03T06:37:53.955Z,2.80
2023-02-03T06:40:23.268Z,1.63
2023-02-03T06:42:51.924Z,2.20
2023-02-03T06:45:19.830Z,2.37
2023-02-03T06:47:47.787Z,2.10
2023-02-03T06:50:16.379Z,2.30
2023-02-03T06:52:44.418Z,2.90
2023-02-03T06:55:12.398Z,2.30
2023-02-03T06:57:45.846Z,2.40
2023-02-03T07:00:17.478Z,3.37
2023-02-03T07:02:46.617Z,1.83
2023-02-03T07:05:14.622Z,1.90
2023-02-03T07:07:42.575Z,1.80
2023-02-03T07:10:11.032Z,2.47
2023-02-03T07:12:38.989Z,2.27
2023-02-03T07:15:09.470Z,1.77
2023-02-03T07:17:37.438Z,1.80
2023-02-03T07:20:06.280Z,2.37
2023-02-03T07:22:34.219Z,2.57
2023-02-03T07:25:02.190Z,2.90
2023-02-03T07:27:30.827Z,2.13
2023-02-03T07:29:58.771Z,2.60
2023-02-03T07:32:28.143Z,1.30
2023-02-03T07:34:56.142Z,1.63
2023-02-03T07:37:24.119Z,1.70
2023-02-03T07:39:52.041Z,2.60
2023-02-03T07:42:20.007Z,2.03
2023-02-03T07:44:47.959Z,1.70
2023-02-03T07:47:15.908Z,2.13
2023-02-03T07:49:45.283Z,1.70
2023-02-03T07:52:13.382Z,2.20
2023-02-03T07:54:41.353Z,1.40
2023-02-03T07:57:09.285Z,1.87
2023-02-03T07:59:37.230Z,2.07
2023-02-03T08:02:06.021Z,2.17
2023-02-03T08:04:34.055Z,1.87
2023-02-03T08:07:03.426Z,1.90
2023-02-03T08:09:31.410Z,1.90
2023-02-03T08:11:59.378Z,1.50
2023-02-03T08:14:27.337Z,3.23
2023-02-03T08:16:55.241Z,2.00
2023-02-03T08:19:23.156Z,2.10
2023-02-03T08:21:51.559Z,1.97
2023-02-03T08:24:20.838Z,2.10
2023-02-03T08:26:48.765Z,2.00
2023-02-03T08:29:16.711Z,2.10
2023-02-03T08:31:44.805Z,2.23
2023-02-03T08:34:12.809Z,3.10
2023-02-03T08:36:40.716Z,2.70
2023-02-03T08:39:08.738Z,1.63
2023-02-03T08:41:38.030Z,1.77
2023-02-03T08:44:06.037Z,2.23
2023-02-03T08:46:35.791Z,1.00
2023-02-03T08:49:03.949Z,2.67
2023-02-03T08:51:31.904Z,2.57
2023-02-03T08:53:59.860Z,2.10
2023-02-03T08:56:27.810Z,3.90
2023-02-03T08:58:57.232Z,2.60
2023-02-03T09:01:25.249Z,3.60
2023-02-03T09:03:53.288Z,2.20
2023-02-03T09:06:24.112Z,2.30
2023-02-03T09:08:53.161Z,2.33
2023-02-03T09:11:21.176Z,2.17
2023-02-03T09:13:49.477Z,2.27
2023-02-03T09:16:19.830Z,3.60
2023-02-03T09:18:47.841Z,2.97
2023-02-03T09:21:27.679Z,1.80
2023-02-03T09:24:02.075Z,2.47
2023-02-03T09:26:30.086Z,3.00
2023-02-03T09:28:58.057Z,2.50
2023-02-03T09:31:27.383Z,2.40
2023-02-03T09:33:55.333Z,2.67
2023-02-03T09:36:23.301Z,2.23
2023-02-03T09:38:51.233Z,2.73
2023-02-03T09:41:25.193Z,3.10
2023-02-03T09:43:54.650Z,2.40
2023-02-03T09:46:23.752Z,2.90
2023-02-03T09:48:55.414Z,3.70
2023-02-03T09:51:24.648Z,2.90
2023-02-03T09:53:55.030Z,2.73
2023-02-03T09:56:27.333Z,2.50
2023-02-03T09:58:55.326Z,2.50
2023-02-03T10:01:23.303Z,2.07
2023-02-03T10:03:53.738Z,2.53
2023-02-03T10:06:26.140Z,2.50
2023-02-03T10:09:01.394Z,2.43
2023-02-03T10:11:40.637Z,3.00
2023-02-03T10:14:15.566Z,2.20
2023-02-03T10:16:47.901Z,2.07
2023-02-03T10:19:20.728Z,2.97
2023-02-03T10:21:51.052Z,3.67
2023-02-03T10:24:20.509Z,2.63
2023-02-03T10:26:48.459Z,2.70
2023-02-03T10:29:25.889Z,3.13
2023-02-03T10:31:58.673Z,3.30
2023-02-03T10:34:28.202Z,2.63
2023-02-03T10:36:57.230Z,3.40
2023-02-03T10:39:36.750Z,3.70
2023-02-03T10:42:05.661Z,1.67
2023-02-03T10:44:37.477Z,1.97
2023-02-03T10:47:34.716Z,2.63
2023-02-03T10:50:07.464Z,2.50
2023-02-03T10:52:35.975Z,3.30
2023-02-03T10:55:06.732Z,2.60
2023-02-03T10:57:36.722Z,2.50
2023-02-03T11:00:13.205Z,2.97
2023-02-03T11:02:41.170Z,2.93
2023-02-03T11:05:21.107Z,1.50
2023-02-03T11:07:49.202Z,2.10
2023-02-03T11:10:31.222Z,2.20
2023-02-03T11:13:12.508Z,2.60
2023-02-03T11:15:45.600Z,2.67
2023-02-03T11:18:41.096Z,2.10
2023-02-03T11:21:12.042Z,3.20
2023-02-03T11:23:45.747Z,2.37
2023-02-03T11:26:14.450Z,2.27
2023-02-03T11:28:43.929Z,3.80
2023-02-03T11:31:18.812Z,2.70
2023-02-03T11:33:49.466Z,4.40
2023-02-03T11:36:18.876Z,4.00
2023-02-03T11:38:46.850Z,5.70
2023-02-03T11:41:19.165Z,3.90
2023-02-03T11:43:47.257Z,2.33
2023-02-03T11:46:15.241Z,2.60
2023-02-03T11:48:48.663Z,4.90
2023-02-03T11:51:23.641Z,3.00
2023-02-03T11:53:58.969Z,2.20
2023-02-03T11:56:33.214Z,4.00
2023-02-03T11:59:16.631Z,3.57
2023-02-03T12:02:01.452Z,2.80
2023-02-03T12:04:45.113Z,2.40
2023-02-03T12:07:32.165Z,3.70
2023-02-03T12:10:02.217Z,3.00
2023-02-03T12:12:43.615Z,4.20
2023-02-03T12:15:25.935Z,3.67
2023-02-03T12:18:12.284Z,4.40
2023-02-03T12:20:46.632Z,3.23
2023-02-03T12:23:23.691Z,3.23
2023-02-03T12:25:59.453Z,5.70
2023-02-03T12:28:36.587Z,4.27
2023-02-03T12:31:08.928Z,3.50
2023-02-03T12:33:39.449Z,3.43
2023-02-03T12:36:09.330Z,4.80
2023-02-03T12:38:41.321Z,4.13
2023-02-03T12:41:12.151Z,2.47
2023-02-03T12:43:40.786Z,3.37
2023-02-03T12:46:12.347Z,3.93
2023-02-03T12:48:46.478Z,3.40
2023-02-03T12:51:15.837Z,4.10
2023-02-03T12:53:48.345Z,3.90
2023-02-03T12:56:17.476Z,3.63
2023-02-03T12:58:46.974Z,3.13
2023-02-03T13:01:17.626Z,2.13
2023-02-03T13:03:48.025Z,1.73
2023-02-03T13:06:17.979Z,2.27
2023-02-03T13:08:51.222Z,2.53
2023-02-03T13:11:23.348Z,3.27
2023-02-03T13:13:54.174Z,2.83
2023-02-03T13:16:26.391Z,3.10
2023-02-03T13:18:55.525Z,3.00
2023-02-03T13:21:23.781Z,4.93
2023-02-03T13:23:53.145Z,2.00
2023-02-03T13:26:48.666Z,3.30
2023-02-03T13:29:34.146Z,3.63
2023-02-03T13:32:08.763Z,2.50
2023-02-03T13:34:55.099Z,3.10
2023-02-03T13:37:51.960Z,3.20
2023-02-03T13:40:26.247Z,3.30
2023-02-03T13:42:55.383Z,2.73
2023-02-03T13:45:26.993Z,2.93
2023-02-03T13:47:56.210Z,2.57
2023-02-03T13:50:25.493Z,2.50
2023-02-03T13:53:01.264Z,3.77
2023-02-03T13:55:36.561Z,3.00
2023-02-03T13:58:04.695Z,2.43
2023-02-03T14:01:02.275Z,2.57
2023-02-03T14:03:43.742Z,2.20
2023-02-03T14:06:59.066Z,1.77
2023-02-03T14:09:43.504Z,2.17
2023-02-03T14:12:42.191Z,2.20
2023-02-03T14:15:22.010Z,2.53
2023-02-03T14:18:07.989Z,2.37
2023-02-03T14:20:47.943Z,1.83
2023-02-03T14:23:18.415Z,2.13
2023-02-03T14:25:48.038Z,3.17
2023-02-03T14:28:18.430Z,3.10
2023-02-03T14:31:12.736Z,3.83
2023-02-03T14:33:51.363Z,3.77
2023-02-03T14:36:30.391Z,4.87
2023-02-03T14:38:59.249Z,2.47
2023-02-03T14:41:28.562Z,4.60
2023-02-03T14:44:00.966Z,3.70
2023-02-03T14:47:01.380Z,3.40
2023-02-03T14:49:38.885Z,3.67
2023-02-03T14:52:15.760Z,2.80
2023-02-03T14:54:51.205Z,2.33
2023-02-03T14:57:27.238Z,3.47
2023-02-03T14:59:58.310Z,3.03
2023-02-03T15:02:27.567Z,3.07
2023-02-03T15:05:38.182Z,3.33
2023-02-03T15:08:06.218Z,3.23
2023-02-03T15:10:42.598Z,4.67
2023-02-03T15:13:27.168Z,4.20
2023-02-03T15:15:57.269Z,3.43
2023-02-03T15:18:30.171Z,3.67
2023-02-03T15:20:58.122Z,3.60
2023-02-03T15:23:26.817Z,3.70
2023-02-03T15:25:55.753Z,3.83
2023-02-03T15:28:23.938Z,11.37
2023-02-03T15:30:53.915Z,3.37
2023-02-03T15:33:24.476Z,3.30
2023-02-03T15:35:53.899Z,4.40
2023-02-03T15:38:22.720Z,4.60
2023-02-03T15:40:52.049Z,10.47
2023-02-03T15:43:21.757Z,7.63
2023-02-03T15:45:56.595Z,7.03
2023-02-03T15:48:30.123Z,6.43
2023-02-03T15:50:59.035Z,8.97
2023-02-03T15:53:41.063Z,13.20
2023-02-03T15:56:17.884Z,8.10
2023-02-03T15:58:46.628Z,7.97
2023-02-03T16:01:18.040Z,18.23
2023-02-03T16:03:48.447Z,18.87
2023-02-03T16:06:18.652Z,6.10
2023-02-03T16:08:48.160Z,15.23
2023-02-03T16:11:26.362Z,42.37
2023-02-03T16:13:55.550Z,37.70
2023-02-03T16:16:24.882Z,23.33
2023-02-03T16:18:55.347Z,19.60
2023-02-03T16:21:28.449Z,11.23
2023-02-03T16:23:56.436Z,10.10
2023-02-03T16:26:25.572Z,11.67
2023-02-03T16:29:14.982Z,20.07
2023-02-03T16:32:03.171Z,16.73
2023-02-03T16:34:50.248Z,16.30
2023-02-03T16:37:41.722Z,17.27
2023-02-03T16:40:27.547Z,31.00
2023-02-03T16:43:12.949Z,14.60
2023-02-03T16:45:58.041Z,19.60
2023-02-03T16:48:43.461Z,25.97
2023-02-03T16:51:15.949Z,29.10
2023-02-03T16:53:44.835Z,15.00
2023-02-03T16:56:13.105Z,16.60
2023-02-03T16:58:41.054Z,16.43
2023-02-03T17:01:09.751Z,21.70
2023-02-03T17:03:37.819Z,24.20
2023-02-03T17:06:06.885Z,12.83
2023-02-03T17:08:36.250Z,22.20
2023-02-03T17:11:05.488Z,18.80
2023-02-03T17:13:33.499Z,11.40
2023-02-03T17:16:01.542Z,11.30
2023-02-03T17:18:29.882Z,10.83
2023-02-03T17:20:59.015Z,9.37
2023-02-03T17:23:27.093Z,9.77
2023-02-03T17:25:56.430Z,11.50
2023-02-03T17:28:24.348Z,10.70
2023-02-03T17:30:57.532Z,14.90
2023-02-03T17:33:25.474Z,11.60
2023-02-03T17:36:01.429Z,12.53
2023-02-03T17:38:29.402Z,12.90
2023-02-03T17:54:46.264Z,17.67
2023-02-03T17:57:15.640Z,17.30
2023-02-03T17:59:43.586Z,14.40
2023-02-03T18:02:11.577Z,16.17
2023-02-03T18:04:39.564Z,15.30
2023-02-03T18:07:07.552Z,14.33
2023-02-03T18:09:35.573Z,13.80
2023-02-03T18:12:04.052Z,14.87
2023-02-03T18:14:33.537Z,16.63
2023-02-03T18:17:01.538Z,13.40
2023-02-03T18:19:29.579Z,14.47
2023-02-03T18:21:59.959Z,12.87
2023-02-03T18:24:29.912Z,13.27
2023-02-03T18:27:00.306Z,11.50
2023-02-03T18:29:28.447Z,11.00
2023-02-03T18:31:57.755Z,12.03
2023-02-03T18:34:25.788Z,12.90
2023-02-03T18:36:53.746Z,13.70
2023-02-03T18:39:21.700Z,35.00
2023-02-03T18:41:49.673Z,19.53
2023-02-03T18:44:17.649Z,14.93
2023-02-03T18:46:45.561Z,12.03
2023-02-03T18:49:14.914Z,14.37
2023-02-03T18:51:42.823Z,24.37
2023-02-03T18:54:11.328Z,14.03
2023-02-03T18:56:39.266Z,13.10
2023-02-03T18:59:08.104Z,16.97
2023-02-03T19:01:36.155Z,21.73
2023-02-03T19:04:04.745Z,11.07
2023-02-03T19:06:34.443Z,14.30
2023-02-03T19:09:02.666Z,12.20
2023-02-03T19:11:30.625Z,11.00
2023-02-03T19:13:58.573Z,9.57
2023-02-03T19:16:26.573Z,10.23
2023-02-03T19:18:54.697Z,13.07
2023-02-03T19:21:22.636Z,8.53
2023-02-03T19:23:52.036Z,13.30
2023-02-03T19:26:19.958Z,12.53
2023-02-03T19:28:47.922Z,8.40
2023-02-03T19:31:16.245Z,9.20
2023-02-03T19:33:44.358Z,10.87
2023-02-03T19:36:12.369Z,11.93
2023-02-03T19:38:40.305Z,7.27
2023-02-03T19:41:11.793Z,15.23
2023-02-03T19:43:40.079Z,28.23
2023-02-03T19:46:08.319Z,16.00
2023-02-03T19:48:36.396Z,11.33
2023-02-03T19:51:04.364Z,29.00
2023-02-03T19:53:32.347Z,14.00
2023-02-03T19:56:00.315Z,12.07
2023-02-03T19:58:30.761Z,15.30
2023-02-03T20:00:58.734Z,24.20
2023-02-03T20:03:26.691Z,19.57
2023-02-03T20:05:54.669Z,17.63
2023-02-03T20:08:22.620Z,11.43
2023-02-03T20:10:51.514Z,8.70
2023-02-03T20:13:19.470Z,14.13
2023-02-03T20:15:48.831Z,10.50
2023-02-03T20:18:16.827Z,6.37
2023-02-03T20:20:44.745Z,15.93
2023-02-03T20:23:12.704Z,9.13
2023-02-03T20:25:40.661Z,6.47
2023-02-03T20:28:08.955Z,16.43
2023-02-03T20:30:37.050Z,13.70
2023-02-03T20:33:06.504Z,10.80
2023-02-03T20:35:34.459Z,8.50
2023-02-03T20:38:02.390Z,27.03
2023-02-03T20:40:30.591Z,15.90
2023-02-03T20:43:02.609Z,10.50
2023-02-03T20:45:30.913Z,8.10
2023-02-03T20:47:59.261Z,7.30
2023-02-03T20:50:40.513Z,6.67
2023-02-03T20:53:12.419Z,6.13
2023-02-03T20:55:40.343Z,23.30
2023-02-03T20:58:13.790Z,12.40
2023-02-03T21:00:42.061Z,4.40
2023-02-03T21:03:28.512Z,15.67
2023-02-03T21:05:57.915Z,18.83
2023-02-03T21:08:26.727Z,7.50
2023-02-03T21:10:54.721Z,6.93
2023-02-03T21:13:23.570Z,5.20
2023-02-03T21:15:52.359Z,5.90
2023-02-03T21:18:29.580Z,3.53
2023-02-03T21:20:58.899Z,6.60
2023-02-03T21:23:28.411Z,3.10
2023-02-03T21:25:56.412Z,4.70
2023-02-03T21:28:25.920Z,3.33
2023-02-03T21:30:54.075Z,2.70
2023-02-03T21:33:30.259Z,1.77
2023-02-03T21:35:59.694Z,1.40
2023-02-03T21:38:29.042Z,1.80
2023-02-03T21:40:57.094Z,2.53
2023-02-03T21:43:25.059Z,2.20
2023-02-03T21:45:53.038Z,2.60
2023-02-03T21:48:31.998Z,1.83
2023-02-03T21:51:03.422Z,1.37
2023-02-03T21:53:35.258Z,3.23
2023-02-03T21:56:17.048Z,2.30
2023-02-03T21:58:47.222Z,1.37
2023-02-03T22:01:17.477Z,0.90
2023-02-03T22:03:47.576Z,2.23
2023-02-03T22:06:22.780Z,3.40
2023-02-03T22:08:51.650Z,2.80
2023-02-03T22:11:20.279Z,2.30
2023-02-03T22:13:48.246Z,2.00
2023-02-03T22:16:17.206Z,1.20
2023-02-03T22:18:45.522Z,1.57
2023-02-03T22:21:13.486Z,2.67
2023-02-03T22:23:42.856Z,2.50
2023-02-03T22:26:11.169Z,2.10
2023-02-03T22:28:39.140Z,2.10
2023-02-03T22:31:07.716Z,2.20
2023-02-03T22:33:36.116Z,2.13
2023-02-03T22:36:04.245Z,2.30
2023-02-03T22:38:32.139Z,2.23
2023-02-03T22:41:01.467Z,1.67
2023-02-03T22:43:31.013Z,1.20
2023-02-03T22:46:01.481Z,1.43
2023-02-03T22:48:29.637Z,1.27
2023-02-03T22:50:58.335Z,1.47
2023-02-03T22:53:26.344Z,1.87
2023-02-03T22:55:54.302Z,1.70
2023-02-03T22:58:23.659Z,1.90
2023-02-03T23:00:51.606Z,2.47
2023-02-03T23:03:19.601Z,1.23
2023-02-03T23:05:47.525Z,1.93
2023-02-03T23:08:15.443Z,1.93
2023-02-03T23:10:43.364Z,1.30
2023-02-03T23:13:11.328Z,1.37
2023-02-03T23:15:40.764Z,1.10
2023-02-03T23:18:08.731Z,1.60
2023-02-03T23:20:36.685Z,1.47
2023-02-03T23:23:04.602Z,1.53
2023-02-03T23:25:32.535Z,1.10
2023-02-03T23:28:00.487Z,1.20
2023-02-03T23:30:28.729Z,1.17
2023-02-03T23:32:58.202Z,1.37
2023-02-03T23:35:43.373Z,1.10
2023-02-03T23:38:11.293Z,1.40
2023-02-03T23:40:39.244Z,1.20
2023-02-03T23:43:07.258Z,1.40
2023-02-03T23:45:35.196Z,1.20
2023-02-03T23:48:04.818Z,1.70
2023-02-03T23:50:33.092Z,1.90
2023-02-03T23:53:01.217Z,2.00
2023-02-03T23:55:31.300Z,2.10
2023-02-03T23:57:59.284Z,2.23
